createdAt,value
2024-03-09T00:00:46.725Z,102131.66
2024-03-09T00:03:14.637Z,102127.60
2024-03-09T00:05:42.199Z,102126.66
2024-03-09T00:08:10.820Z,102129.10
2024-03-09T00:10:38.662Z,102124.95
2024-03-09T00:13:05.920Z,102128.66
2024-03-09T00:15:32.990Z,102124.95
2024-03-09T00:17:59.990Z,102107.84
2024-03-09T00:20:36.562Z,102121.91
2024-03-09T00:23:07.601Z,102119.69
2024-03-09T00:25:35.809Z,102122.39
2024-03-09T00:28:02.800Z,102119.98
2024-03-09T00:30:33.382Z,102119.34
2024-03-09T00:33:02.350Z,102117.43
2024-03-09T00:35:31.848Z,102119.77
2024-03-09T00:38:00.416Z,102121.79
2024-03-09T00:40:32.467Z,102116.05
2024-03-09T00:43:07.209Z,102117.27
2024-03-09T00:45:35.150Z,102116.91
2024-03-09T00:48:04.632Z,102114.52
2024-03-09T00:50:32.416Z,102111.80
2024-03-09T00:52:59.317Z,102116.23
2024-03-09T00:55:26.784Z,102119.56
2024-03-09T00:57:55.550Z,102116.45
2024-03-09T01:00:25.524Z,102113.18
2024-03-09T01:02:53.552Z,102111.34
2024-03-09T01:05:21.570Z,102107.91
2024-03-09T01:07:51.247Z,102104.52
2024-03-09T01:10:18.446Z,102108.09
2024-03-09T01:12:45.394Z,102110.53
2024-03-09T01:15:12.433Z,102110.17
2024-03-09T01:17:40.045Z,102111.71
2024-03-09T01:20:09.022Z,102110.92
2024-03-09T01:22:37.482Z,102113.42
2024-03-09T01:25:05.259Z,102116.47
2024-03-09T01:27:32.168Z,102111.39
2024-03-09T01:30:02.394Z,102112.27
2024-03-09T01:32:30.068Z,102111.33
2024-03-09T01:34:58.227Z,102113.69
2024-03-09T01:37:26.404Z,102110.88
2024-03-09T01:39:53.672Z,102113.40
2024-03-09T01:42:22.969Z,102112.64
2024-03-09T01:44:51.787Z,102110.73
2024-03-09T01:47:27.715Z,102104.23
2024-03-09T01:49:55.245Z,102108.98
2024-03-09T01:52:25.102Z,102102.59
2024-03-09T01:54:55.193Z,102102.70
2024-03-09T01:57:23.230Z,102097.20
2024-03-09T01:59:56.606Z,102099.06
2024-03-09T02:02:24.493Z,102094.45
2024-03-09T02:04:52.836Z,102090.86
2024-03-09T02:07:20.442Z,102090.00
2024-03-09T02:09:49.594Z,102089.66
2024-03-09T02:12:18.705Z,102090.69
2024-03-09T02:14:46.546Z,102091.42
2024-03-09T02:17:15.437Z,102087.91
2024-03-09T02:19:43.349Z,102088.34
2024-03-09T02:22:13.111Z,102088.27
2024-03-09T02:24:42.874Z,102089.15
2024-03-09T02:27:11.198Z,102086.39
2024-03-09T02:29:39.484Z,102082.02
2024-03-09T02:32:08.668Z,102082.00
2024-03-09T02:34:36.516Z,102083.05
2024-03-09T02:37:04.759Z,102082.91
2024-03-09T02:39:32.348Z,102078.80
2024-03-09T02:42:00.157Z,102074.96
2024-03-09T02:44:30.841Z,102079.88
2024-03-09T02:46:58.078Z,102079.75
2024-03-09T02:49:27.863Z,102078.64
2024-03-09T02:51:55.298Z,102081.85
2024-03-09T02:54:22.605Z,102080.09
2024-03-09T02:56:51.034Z,102080.73
2024-03-09T02:59:18.426Z,102084.11
2024-03-09T03:01:48.517Z,102080.22
2024-03-09T03:04:16.659Z,102079.14
2024-03-09T03:06:45.078Z,102079.34
2024-03-09T03:09:13.763Z,102079.36
2024-03-09T03:11:44.163Z,102077.57
2024-03-09T03:14:11.928Z,102078.24
2024-03-09T03:16:39.375Z,102073.95
2024-03-09T03:19:08.938Z,102074.64
2024-03-09T03:21:41.524Z,102069.43
2024-03-09T03:24:10.719Z,102071.38
2024-03-09T03:26:38.296Z,102071.55
2024-03-09T03:29:06.008Z,102071.35
2024-03-09T03:31:33.715Z,102064.64
2024-03-09T03:34:02.385Z,102067.82
2024-03-09T03:36:29.901Z,102068.41
2024-03-09T03:38:57.062Z,102068.56
2024-03-09T03:41:24.668Z,102069.92
2024-03-09T03:43:52.367Z,102070.03
2024-03-09T03:46:19.695Z,102071.05
2024-03-09T03:48:47.976Z,102070.33
2024-03-09T03:51:17.199Z,102070.09
2024-03-09T03:53:46.267Z,102070.84
2024-03-09T03:56:15.015Z,102071.04
2024-03-09T03:58:53.217Z,102074.39
2024-03-09T04:01:20.186Z,102073.52
2024-03-09T04:03:48.454Z,102075.02
2024-03-09T04:06:15.336Z,102076.87
2024-03-09T04:08:42.248Z,102077.11
2024-03-09T04:11:09.568Z,102074.36
2024-03-09T04:13:36.732Z,102073.86
2024-03-09T04:16:03.782Z,102077.20
2024-03-09T04:18:31.897Z,102078.68
2024-03-09T04:20:59.317Z,102078.70
2024-03-09T04:23:26.536Z,102081.68
2024-03-09T04:26:00.013Z,102079.33
2024-03-09T04:28:29.834Z,102077.95
2024-03-09T04:30:59.598Z,102083.45
2024-03-09T04:33:27.762Z,102082.54
2024-03-09T04:35:55.418Z,102084.55
2024-03-09T04:38:22.540Z,102086.98
2024-03-09T04:40:52.901Z,102089.25
2024-03-09T04:43:20.002Z,102090.92
2024-03-09T04:45:47.530Z,102091.13
2024-03-09T04:48:17.774Z,102091.52
2024-03-09T04:50:49.557Z,102091.16
2024-03-09T04:53:18.504Z,102095.46
2024-03-09T04:55:50.737Z,102092.13
2024-03-09T04:58:19.880Z,102090.92
2024-03-09T05:00:47.789Z,102092.97
2024-03-09T05:03:15.757Z,102093.64
2024-03-09T05:05:44.619Z,102091.73
2024-03-09T05:08:12.382Z,102088.95
2024-03-09T05:10:39.668Z,102094.89
2024-03-09T05:13:08.801Z,102093.04
2024-03-09T05:15:37.499Z,102094.52
2024-03-09T05:18:11.123Z,102093.23
2024-03-09T05:20:38.836Z,102096.54
2024-03-09T05:23:13.229Z,102100.16
2024-03-09T05:25:43.778Z,102104.92
2024-03-09T05:28:15.902Z,102106.51
2024-03-09T05:30:45.280Z,102103.48
2024-03-09T05:33:13.757Z,102105.84
2024-03-09T05:35:41.328Z,102105.27
2024-03-09T05:38:10.931Z,102110.17
2024-03-09T05:40:39.025Z,102111.06
2024-03-09T05:43:09.672Z,102114.27
2024-03-09T05:45:38.411Z,102114.73
2024-03-09T05:48:07.004Z,102118.08
2024-03-09T05:50:36.265Z,102115.83
2024-03-09T05:53:03.759Z,102118.20
2024-03-09T05:55:31.374Z,102123.17
2024-03-09T05:57:59.361Z,102127.44
2024-03-09T06:00:29.720Z,102130.75
2024-03-09T06:02:58.920Z,102129.13
2024-03-09T06:05:33.375Z,102130.22
2024-03-09T06:08:03.832Z,102132.61
2024-03-09T06:10:31.882Z,102134.44
2024-03-09T06:12:59.088Z,102136.04
2024-03-09T06:15:27.144Z,102135.89
2024-03-09T06:17:58.421Z,102135.05
2024-03-09T06:20:30.417Z,102139.05
2024-03-09T06:22:58.782Z,102139.61
2024-03-09T06:25:31.627Z,102140.54
2024-03-09T06:28:09.424Z,102141.71
2024-03-09T06:30:39.676Z,102143.45
2024-03-09T06:33:06.565Z,102146.61
2024-03-09T06:35:34.239Z,102140.30
2024-03-09T06:38:11.973Z,102141.29
2024-03-09T06:40:42.945Z,102138.28
2024-03-09T06:43:12.023Z,102138.28
2024-03-09T06:45:40.815Z,102136.03
2024-03-09T06:48:09.021Z,102134.36
2024-03-09T06:50:37.910Z,102133.73
2024-03-09T06:53:05.315Z,102133.08
2024-03-09T06:55:32.732Z,102131.35
2024-03-09T06:58:05.491Z,102130.84
2024-03-09T07:00:38.759Z,102130.39
2024-03-09T07:03:07.080Z,102131.73
2024-03-09T07:05:39.142Z,102130.35
2024-03-09T07:08:11.640Z,102130.19
2024-03-09T07:10:39.409Z,102128.05
2024-03-09T07:13:06.644Z,102129.22
2024-03-09T07:15:34.164Z,102126.48
2024-03-09T07:18:02.297Z,102130.25
2024-03-09T07:20:30.399Z,102131.70
2024-03-09T07:22:58.102Z,102131.87
2024-03-09T07:25:28.784Z,102131.95
2024-03-09T07:27:58.017Z,102134.46
2024-03-09T07:30:26.261Z,102132.05
2024-03-09T07:32:55.670Z,102134.18
2024-03-09T07:35:29.229Z,102131.55
2024-03-09T07:38:00.640Z,102130.45
2024-03-09T07:40:33.665Z,102124.79
2024-03-09T07:43:01.210Z,102126.27
2024-03-09T07:45:29.674Z,102127.45
2024-03-09T07:47:57.008Z,102122.55
2024-03-09T07:50:24.868Z,102124.80
2024-03-09T07:52:54.775Z,102119.83
2024-03-09T07:55:24.766Z,102121.03
2024-03-09T07:58:08.241Z,102120.38
2024-03-09T08:00:41.536Z,102120.11
2024-03-09T08:03:08.722Z,102116.83
2024-03-09T08:05:35.856Z,102115.70
2024-03-09T08:08:10.419Z,102115.86
2024-03-09T08:10:54.369Z,102116.27
2024-03-09T08:13:24.964Z,102115.40
2024-03-09T08:15:54.331Z,102112.73
2024-03-09T08:18:23.426Z,102113.34
2024-03-09T08:20:51.179Z,102111.25
2024-03-09T08:23:19.043Z,102107.29
2024-03-09T08:25:46.627Z,102107.04
2024-03-09T08:28:14.349Z,102107.34
2024-03-09T08:30:42.393Z,102103.13
2024-03-09T08:33:11.054Z,102104.59
2024-03-09T08:35:38.338Z,102108.45
2024-03-09T08:38:05.981Z,102105.15
2024-03-09T08:40:33.401Z,102106.89
2024-03-09T08:43:00.603Z,102104.55
2024-03-09T08:45:28.916Z,102108.20
2024-03-09T08:47:56.195Z,102106.14
2024-03-09T08:50:24.692Z,102109.81
2024-03-09T08:52:52.029Z,102106.93
2024-03-09T08:55:20.266Z,102105.31
2024-03-09T08:57:50.316Z,102106.94
2024-03-09T09:00:26.721Z,102105.14
2024-03-09T09:02:58.711Z,102100.95
2024-03-09T09:05:29.148Z,102097.86
2024-03-09T09:07:57.413Z,102098.15
2024-03-09T09:10:27.211Z,102101.96
2024-03-09T09:12:55.987Z,102099.93
2024-03-09T09:15:26.535Z,102101.20
2024-03-09T09:17:55.408Z,102099.23
2024-03-09T09:20:22.748Z,102098.89
2024-03-09T09:22:50.879Z,102093.36
2024-03-09T09:25:28.603Z,102097.71
2024-03-09T09:27:58.391Z,102098.86
2024-03-09T09:30:27.889Z,102094.58
2024-03-09T09:32:54.865Z,102096.94
2024-03-09T09:35:22.168Z,102097.70
2024-03-09T09:37:49.177Z,102101.08
2024-03-09T09:40:17.479Z,102103.42
2024-03-09T09:42:46.334Z,102104.52
2024-03-09T09:45:35.415Z,102103.38
2024-03-09T09:48:03.361Z,102097.81
2024-03-09T09:50:36.461Z,102099.63
2024-03-09T09:53:09.897Z,102100.30
2024-03-09T09:55:37.930Z,102102.52
2024-03-09T09:58:07.856Z,102104.02
2024-03-09T10:00:34.815Z,102101.95
2024-03-09T10:03:02.805Z,102100.33
2024-03-09T10:05:30.289Z,102099.80
2024-03-09T10:08:02.717Z,102093.60
2024-03-09T10:10:36.859Z,102092.11
2024-03-09T10:13:14.169Z,102091.13
2024-03-09T10:15:44.869Z,102093.55
2024-03-09T10:18:16.996Z,102099.73
2024-03-09T10:20:44.563Z,102098.27
2024-03-09T10:23:15.482Z,102099.90
2024-03-09T10:25:43.312Z,102096.96
2024-03-09T10:28:11.944Z,102099.23
2024-03-09T10:30:40.208Z,102108.30
2024-03-09T10:33:17.985Z,102106.52
2024-03-09T10:35:48.316Z,102104.55
2024-03-09T10:38:19.111Z,102103.16
2024-03-09T10:40:46.590Z,102101.00
2024-03-09T10:43:15.595Z,102096.92
2024-03-09T10:45:43.203Z,102093.82
2024-03-09T10:48:11.368Z,102099.23
2024-03-09T10:50:56.551Z,102096.55
2024-03-09T10:53:23.410Z,102094.42
2024-03-09T10:56:07.533Z,102092.29
2024-03-09T10:58:39.212Z,102094.63
2024-03-09T11:01:09.461Z,102097.23
2024-03-09T11:03:38.042Z,102096.92
2024-03-09T11:06:05.023Z,102095.56
2024-03-09T11:08:34.267Z,102097.71
2024-03-09T11:11:03.563Z,102091.39
2024-03-09T11:13:32.430Z,102089.72
2024-03-09T11:16:00.311Z,102087.33
2024-03-09T11:18:27.376Z,102083.27
2024-03-09T11:21:01.741Z,102088.62
2024-03-09T11:23:34.505Z,102094.14
2024-03-09T11:26:04.678Z,102091.32
2024-03-09T11:28:52.229Z,102089.06
2024-03-09T11:31:27.685Z,102089.66
2024-03-09T11:34:23.729Z,102086.77
2024-03-09T11:36:53.414Z,102088.77
2024-03-09T11:39:23.604Z,102083.11
2024-03-09T11:41:52.519Z,102087.64
2024-03-09T11:44:23.895Z,102085.44
2024-03-09T11:46:52.432Z,102080.43
2024-03-09T11:49:19.554Z,102076.77
2024-03-09T11:51:49.540Z,102075.73
2024-03-09T11:54:20.413Z,102067.62
2024-03-09T11:56:47.648Z,102063.81
2024-03-09T11:59:17.013Z,102059.52
2024-03-09T12:01:45.012Z,102059.68
2024-03-09T12:04:12.499Z,102059.53
2024-03-09T12:06:43.984Z,102058.92
2024-03-09T12:09:15.272Z,102054.84
2024-03-09T12:11:47.846Z,102050.40
2024-03-09T12:14:16.807Z,102047.28
2024-03-09T12:16:46.740Z,102044.70
2024-03-09T12:19:15.676Z,102046.45
2024-03-09T12:21:44.388Z,102044.52
2024-03-09T12:24:14.088Z,102048.52
2024-03-09T12:26:42.738Z,102047.40
2024-03-09T12:29:14.478Z,102045.09
2024-03-09T12:31:42.441Z,102043.69
2024-03-09T12:34:12.158Z,102049.73
2024-03-09T12:36:51.116Z,102047.25
2024-03-09T12:39:19.269Z,102046.36
2024-03-09T12:41:55.298Z,102048.83
2024-03-09T12:44:23.674Z,102047.82
2024-03-09T12:46:50.999Z,102050.45
2024-03-09T12:49:20.128Z,102044.27
2024-03-09T12:51:50.147Z,102051.57
2024-03-09T12:54:18.640Z,102052.05
2024-03-09T12:56:54.171Z,102051.54
2024-03-09T12:59:28.090Z,102051.18
2024-03-09T13:01:56.292Z,102046.14
2024-03-09T13:04:28.366Z,102042.85
2024-03-09T13:06:58.529Z,102042.30
2024-03-09T13:09:34.372Z,102045.73
2024-03-09T13:12:04.312Z,102041.54
2024-03-09T13:14:35.632Z,102036.66
2024-03-09T13:17:04.383Z,102037.84
2024-03-09T13:19:31.673Z,102035.15
2024-03-09T13:22:01.326Z,102032.63
2024-03-09T13:24:29.127Z,102030.66
2024-03-09T13:26:57.460Z,102030.88
2024-03-09T13:29:30.488Z,102027.80
2024-03-09T13:31:59.963Z,102018.98
2024-03-09T13:34:32.052Z,102019.36
2024-03-09T13:37:00.658Z,102010.66
2024-03-09T13:39:36.795Z,102013.42
2024-03-09T13:42:10.716Z,102015.14
2024-03-09T13:44:38.668Z,102010.45
2024-03-09T13:47:07.079Z,102010.29
2024-03-09T13:49:34.625Z,102008.89
2024-03-09T13:52:02.020Z,102010.77
2024-03-09T13:54:30.492Z,102006.41
2024-03-09T13:56:57.642Z,102005.86
2024-03-09T13:59:25.242Z,101998.23
2024-03-09T14:01:52.634Z,101998.27
2024-03-09T14:04:24.012Z,102000.23
2024-03-09T14:07:06.577Z,101998.05
2024-03-09T14:09:47.033Z,101999.63
2024-03-09T14:12:17.223Z,102002.55
2024-03-09T14:14:44.165Z,101997.89
2024-03-09T14:17:11.170Z,101998.95
2024-03-09T14:19:40.636Z,101999.66
2024-03-09T14:22:12.711Z,102005.70
2024-03-09T14:24:39.708Z,102000.46
2024-03-09T14:27:09.918Z,102002.86
2024-03-09T14:29:37.477Z,102004.58
2024-03-09T14:32:07.757Z,102002.14
2024-03-09T14:34:36.414Z,102005.74
2024-03-09T14:37:03.865Z,102004.83
2024-03-09T14:39:32.314Z,102001.21
2024-03-09T14:41:59.300Z,101997.13
2024-03-09T14:44:26.280Z,101994.78
2024-03-09T14:46:53.385Z,101987.91
2024-03-09T14:49:20.669Z,101986.02
2024-03-09T14:51:48.467Z,101985.02
2024-03-09T14:54:18.733Z,101982.29
2024-03-09T14:56:47.836Z,101982.13
2024-03-09T14:59:15.121Z,101980.37
2024-03-09T15:01:44.840Z,101978.41
2024-03-09T15:04:16.344Z,101980.10
2024-03-09T15:06:43.376Z,101975.56
2024-03-09T15:09:22.264Z,101976.57
2024-03-09T15:11:53.956Z,101975.14
2024-03-09T15:14:24.665Z,101972.83
2024-03-09T15:16:51.902Z,101975.74
2024-03-09T15:19:20.081Z,101972.23
2024-03-09T15:21:47.100Z,101975.52
2024-03-09T15:24:14.034Z,101976.89
2024-03-09T15:26:44.625Z,101980.16
2024-03-09T15:29:15.733Z,101978.08
2024-03-09T15:31:45.564Z,101975.13
2024-03-09T15:34:12.627Z,101968.42
2024-03-09T15:36:40.839Z,101970.20
2024-03-09T15:39:10.740Z,101970.23
2024-03-09T15:41:37.721Z,101969.38
2024-03-09T15:44:07.921Z,101967.30
2024-03-09T15:46:37.265Z,101967.48
2024-03-09T15:49:07.431Z,101961.58
2024-03-09T15:51:37.204Z,101961.58
2024-03-09T15:54:05.082Z,101958.98
2024-03-09T15:56:34.668Z,101957.58
2024-03-09T15:59:06.032Z,101960.14
2024-03-09T16:01:36.909Z,101964.41
2024-03-09T16:04:11.632Z,101959.19
2024-03-09T16:06:48.374Z,101958.48
2024-03-09T16:09:16.008Z,101961.33
2024-03-09T16:11:43.544Z,101960.56
2024-03-09T16:14:14.119Z,101961.07
2024-03-09T16:16:41.761Z,101963.15
2024-03-09T16:19:08.734Z,101960.04
2024-03-09T16:21:38.526Z,101960.38
2024-03-09T16:24:08.696Z,101961.07
2024-03-09T16:26:36.121Z,101961.58
2024-03-09T16:29:03.843Z,101961.89
2024-03-09T16:31:37.328Z,101966.71
2024-03-09T16:34:08.292Z,101969.80
2024-03-09T16:36:35.739Z,101972.04
2024-03-09T16:39:02.864Z,101970.98
2024-03-09T16:41:30.202Z,101969.93
2024-03-09T16:43:57.623Z,101970.27
2024-03-09T16:46:25.277Z,101969.90
2024-03-09T16:48:53.995Z,101973.46
2024-03-09T16:51:22.568Z,101974.80
2024-03-09T16:53:54.899Z,101976.70
2024-03-09T16:56:22.277Z,101980.83
2024-03-09T16:58:50.408Z,101979.89
2024-03-09T17:01:17.681Z,101981.59
2024-03-09T17:03:44.795Z,101984.03
2024-03-09T17:06:17.238Z,101979.05
2024-03-09T17:08:45.772Z,101975.66
2024-03-09T17:11:15.593Z,101971.55
2024-03-09T17:13:48.643Z,101967.90
2024-03-09T17:16:19.118Z,101974.13
2024-03-09T17:18:50.088Z,101971.34
2024-03-09T17:21:18.393Z,101973.90
2024-03-09T17:23:46.430Z,101974.88
2024-03-09T17:26:14.299Z,101984.90
2024-03-09T17:28:41.256Z,101983.66
2024-03-09T17:31:11.010Z,101987.58
2024-03-09T17:33:40.701Z,101992.86
2024-03-09T17:36:07.953Z,101997.98
2024-03-09T17:38:35.033Z,101997.59
2024-03-09T17:41:03.230Z,101997.70
2024-03-09T17:43:30.724Z,102001.27
2024-03-09T17:45:57.878Z,102001.39
2024-03-09T17:48:24.810Z,101998.84
2024-03-09T17:50:52.037Z,101994.40
2024-03-09T17:53:18.947Z,101992.95
2024-03-09T17:55:48.544Z,101993.88
2024-03-09T17:58:15.771Z,101988.64
2024-03-09T18:00:42.663Z,101986.01
2024-03-09T18:03:15.589Z,101984.80
2024-03-09T18:05:42.667Z,101986.97
2024-03-09T18:08:10.458Z,101987.27
2024-03-09T18:10:43.204Z,101986.14
2024-03-09T18:13:12.900Z,101983.66
2024-03-09T18:15:43.756Z,101985.88
2024-03-09T18:18:12.608Z,101988.27
2024-03-09T18:20:44.578Z,101986.10
2024-03-09T18:23:12.762Z,101986.06
2024-03-09T18:25:40.817Z,101984.50
2024-03-09T18:28:09.036Z,101980.39
2024-03-09T18:30:36.708Z,101981.84
2024-03-09T18:33:08.205Z,101986.24
2024-03-09T18:35:36.030Z,101986.98
2024-03-09T18:38:04.571Z,101993.36
2024-03-09T18:40:32.284Z,101995.59
2024-03-09T18:43:00.359Z,101997.98
2024-03-09T18:45:34.613Z,101998.11
2024-03-09T18:48:03.220Z,101996.02
2024-03-09T18:50:31.705Z,101997.19
2024-03-09T18:52:59.668Z,101999.90
2024-03-09T18:55:29.312Z,102005.80
2024-03-09T18:57:56.837Z,102008.51
2024-03-09T19:00:31.755Z,102011.39
2024-03-09T19:03:00.508Z,102004.28
2024-03-09T19:05:28.618Z,102009.48
2024-03-09T19:08:03.033Z,102009.02
2024-03-09T19:10:32.786Z,102007.83
2024-03-09T19:13:03.441Z,102011.45
2024-03-09T19:15:33.283Z,102013.10
2024-03-09T19:18:01.129Z,102009.19
2024-03-09T19:20:29.608Z,102008.52
2024-03-09T19:22:57.099Z,102004.67
2024-03-09T19:25:24.323Z,102008.79
2024-03-09T19:27:53.395Z,102015.67
2024-03-09T19:30:27.389Z,102016.36
2024-03-09T19:32:57.774Z,102015.80
2024-03-09T19:35:26.991Z,102011.93
2024-03-09T19:37:59.285Z,102010.46
2024-03-09T19:40:28.887Z,102010.95
2024-03-09T19:42:56.655Z,102011.48
2024-03-09T19:45:25.363Z,102012.04
2024-03-09T19:47:53.184Z,102013.80
2024-03-09T19:50:23.489Z,102015.64
2024-03-09T19:52:51.667Z,102015.95
2024-03-09T19:55:24.500Z,102014.52
2024-03-09T19:57:51.585Z,102016.71
2024-03-09T20:00:23.924Z,102016.98
2024-03-09T20:02:52.904Z,102017.27
2024-03-09T20:05:24.545Z,102016.38
2024-03-09T20:07:56.096Z,102020.35
2024-03-09T20:10:24.673Z,102010.31
2024-03-09T20:12:54.625Z,102010.94
2024-03-09T20:15:22.550Z,102014.21
2024-03-09T20:17:51.928Z,102014.91
2024-03-09T20:20:19.941Z,102019.17
2024-03-09T20:22:59.130Z,102018.80
2024-03-09T20:25:28.174Z,102020.97
2024-03-09T20:27:56.503Z,102021.00
2024-03-09T20:30:23.998Z,102023.27
2024-03-09T20:32:51.979Z,102038.02
2024-03-09T20:35:19.762Z,102036.11
2024-03-09T20:37:48.195Z,102040.34
2024-03-09T20:40:20.392Z,102039.42
2024-03-09T20:42:52.438Z,102039.50
2024-03-09T20:45:21.893Z,102043.20
2024-03-09T20:47:50.220Z,102044.66
2024-03-09T20:50:22.184Z,102049.58
2024-03-09T20:52:59.946Z,102053.70
2024-03-09T20:55:28.875Z,102057.58
2024-03-09T20:57:56.269Z,102058.73
2024-03-09T21:00:24.197Z,102058.66
2024-03-09T21:02:52.458Z,102059.92
2024-03-09T21:05:20.126Z,102061.83
2024-03-09T21:07:47.759Z,102057.63
2024-03-09T21:10:15.111Z,102057.70
2024-03-09T21:12:42.830Z,102056.59
2024-03-09T21:15:10.803Z,102056.89
2024-03-09T21:17:38.097Z,102056.88
2024-03-09T21:20:13.147Z,102058.25
2024-03-09T21:22:40.682Z,102060.54
2024-03-09T21:25:12.200Z,102066.26
2024-03-09T21:27:44.472Z,102067.48
2024-03-09T21:30:15.049Z,102071.14
2024-03-09T21:32:44.321Z,102066.39
2024-03-09T21:35:14.418Z,102063.78
2024-03-09T21:37:45.064Z,102066.55
2024-03-09T21:40:14.554Z,102066.48
2024-03-09T21:42:42.776Z,102068.27
2024-03-09T21:45:10.141Z,102066.47
2024-03-09T21:47:38.334Z,102064.68
2024-03-09T21:50:06.230Z,102067.27
2024-03-09T21:52:33.223Z,102070.10
2024-03-09T21:55:00.178Z,102074.44
2024-03-09T21:57:27.211Z,102066.09
2024-03-09T21:59:54.355Z,102065.71
2024-03-09T22:02:21.334Z,102064.79
2024-03-09T22:04:48.550Z,102063.52
2024-03-09T22:07:15.573Z,102062.05
2024-03-09T22:09:42.496Z,102058.34
2024-03-09T22:12:10.296Z,102061.92
2024-03-09T22:14:40.303Z,102057.88
2024-03-09T22:17:07.672Z,102061.81
2024-03-09T22:19:34.688Z,102059.90
2024-03-09T22:22:02.252Z,102061.52
2024-03-09T22:24:29.301Z,102061.95
2024-03-09T22:26:56.927Z,102062.17
2024-03-09T22:29:24.580Z,102063.27
2024-03-09T22:31:52.577Z,102066.20
2024-03-09T22:34:19.861Z,102066.33
2024-03-09T22:36:46.907Z,102064.16
2024-03-09T22:39:17.506Z,102061.64
2024-03-09T22:41:47.746Z,102058.63
2024-03-09T22:44:15.792Z,102059.83
2024-03-09T22:46:42.769Z,102056.02
2024-03-09T22:49:10.444Z,102049.53
2024-03-09T22:51:37.688Z,102047.66
2024-03-09T22:54:04.695Z,102045.38
2024-03-09T22:56:32.604Z,102040.56
2024-03-09T22:58:59.549Z,102039.65
2024-03-09T23:01:26.898Z,102039.39
2024-03-09T23:03:54.453Z,102040.36
2024-03-09T23:06:21.660Z,102037.70
2024-03-09T23:08:49.300Z,102039.02
2024-03-09T23:11:19.441Z,102039.87
2024-03-09T23:13:48.215Z,102038.67
2024-03-09T23:16:15.804Z,102036.86
2024-03-09T23:18:43.399Z,102035.98
2024-03-09T23:21:11.134Z,102038.06
2024-03-09T23:23:38.434Z,102040.27
2024-03-09T23:26:05.695Z,102044.51
2024-03-09T23:28:32.736Z,102048.95
2024-03-09T23:31:02.566Z,102057.20
2024-03-09T23:33:29.433Z,102060.92
2024-03-09T23:35:57.349Z,102064.34
2024-03-09T23:38:24.306Z,102066.93
2024-03-09T23:40:51.568Z,102061.73
2024-03-09T23:43:22.412Z,102066.62
2024-03-09T23:45:49.866Z,102062.77
2024-03-09T23:48:16.868Z,102060.60
2024-03-09T23:50:44.261Z,102062.46
2024-03-09T23:53:13.304Z,102059.09
2024-03-09T23:55:41.687Z,102056.43
2024-03-09T23:58:08.903Z,102056.20
